createdAt,value
2023-05-10T04:49:13.090Z,32.50
2023-05-10T04:51:41.868Z,36.90
2023-05-10T04:54:10.703Z,27.10
2023-05-10T04:56:39.456Z,23.40
2023-05-10T04:59:08.348Z,23.70
2023-05-10T05:01:37.082Z,25.70
2023-05-10T05:04:06.327Z,23.80
2023-05-10T05:06:35.114Z,20.70
2023-05-10T05:09:04.427Z,19.20
2023-05-10T05:11:33.258Z,20.60
2023-05-10T05:14:02.219Z,18.50
2023-05-10T05:16:33.290Z,21.70
2023-05-10T05:19:02.549Z,16.80
2023-05-10T05:21:31.437Z,20.10
2023-05-10T05:24:00.333Z,19.00
2023-05-10T05:26:29.320Z,19.20
2023-05-10T05:28:58.222Z,18.10
2023-05-10T05:31:27.370Z,17.40
2023-05-10T05:33:56.776Z,17.60
2023-05-10T05:36:26.015Z,21.60
2023-05-10T05:38:54.924Z,23.30
2023-05-10T05:41:25.238Z,18.80
2023-05-10T05:43:54.233Z,15.70
2023-05-10T05:46:23.088Z,16.40
2023-05-10T05:48:52.017Z,16.10
2023-05-10T05:51:21.412Z,15.70
2023-05-10T05:53:50.210Z,18.30
2023-05-10T05:56:25.350Z,19.40
2023-05-10T05:58:54.547Z,16.90
2023-05-10T06:01:23.330Z,19.70
2023-05-10T06:03:53.502Z,16.10
2023-05-10T06:06:22.461Z,16.70
2023-05-10T06:08:51.338Z,18.20
2023-05-10T06:11:20.142Z,18.70
2023-05-10T06:13:49.323Z,17.10
2023-05-10T06:16:19.078Z,22.40
2023-05-10T06:18:47.928Z,25.10
2023-05-10T06:21:17.532Z,18.50
2023-05-10T06:23:46.525Z,21.60
2023-05-10T06:26:15.246Z,14.80
2023-05-10T06:28:44.049Z,18.20
2023-05-10T06:31:13.734Z,19.20
2023-05-10T06:33:42.813Z,14.70
2023-05-10T06:36:11.801Z,17.00
2023-05-10T06:38:40.831Z,19.10
2023-05-10T06:41:09.696Z,12.60
2023-05-10T06:43:41.247Z,17.30
2023-05-10T06:46:10.485Z,16.90
2023-05-10T06:48:39.363Z,13.90
2023-05-10T06:51:08.229Z,15.20
2023-05-10T06:53:37.163Z,13.10
2023-05-10T06:56:06.194Z,11.30
2023-05-10T06:58:34.979Z,8.60
2023-05-10T07:01:05.593Z,9.90
2023-05-10T07:03:34.435Z,10.30
2023-05-10T07:06:05.458Z,13.10
2023-05-10T07:08:35.443Z,9.90
2023-05-10T07:11:06.445Z,10.40
2023-05-10T07:13:36.017Z,10.70
2023-05-10T07:16:07.549Z,10.30
2023-05-10T07:18:36.393Z,9.40
2023-05-10T07:21:05.307Z,7.60
2023-05-10T07:23:34.259Z,9.70
2023-05-10T07:26:03.476Z,7.50
2023-05-10T07:28:32.256Z,7.00
2023-05-10T07:31:01.051Z,6.70
2023-05-10T07:33:29.825Z,7.30
2023-05-10T07:35:58.990Z,16.00
2023-05-10T07:38:27.726Z,9.10
2023-05-10T07:40:56.446Z,9.30
2023-05-10T07:43:25.172Z,6.40
2023-05-10T07:45:56.094Z,7.30
2023-05-10T07:48:25.145Z,7.70
2023-05-10T07:50:53.854Z,5.20
2023-05-10T07:53:22.553Z,5.10
2023-05-10T07:55:59.417Z,5.40
2023-05-10T07:58:28.207Z,8.10
2023-05-10T08:00:57.727Z,8.00
2023-05-10T08:03:26.466Z,5.60
2023-05-10T08:05:55.129Z,9.30
2023-05-10T08:08:25.435Z,5.70
2023-05-10T08:10:54.150Z,8.40
2023-05-10T08:13:22.966Z,6.50
2023-05-10T08:15:54.247Z,3.60
2023-05-10T08:18:23.221Z,3.20
2023-05-10T08:20:51.946Z,4.30
2023-05-10T08:23:20.714Z,8.10
2023-05-10T08:25:49.521Z,5.30
2023-05-10T08:28:18.210Z,4.70
2023-05-10T08:30:46.894Z,6.50
2023-05-10T08:33:15.619Z,5.40
2023-05-10T08:35:44.269Z,6.30
2023-05-10T08:38:14.167Z,5.60
2023-05-10T08:40:44.447Z,6.90
2023-05-10T08:43:17.739Z,5.90
2023-05-10T08:45:48.222Z,5.50
2023-05-10T08:48:18.544Z,5.90
2023-05-10T08:50:49.870Z,4.20
2023-05-10T08:53:20.341Z,5.70
2023-05-10T08:55:49.972Z,6.70
2023-05-10T08:58:20.745Z,5.30
2023-05-10T09:00:52.753Z,4.80
2023-05-10T09:03:21.945Z,6.80
2023-05-10T09:05:54.267Z,5.40
2023-05-10T09:08:27.045Z,10.70
2023-05-10T09:13:27.144Z,3.60
2023-05-10T09:15:56.390Z,4.90
2023-05-10T09:18:27.940Z,4.90
2023-05-10T09:20:57.031Z,4.50
2023-05-10T09:23:32.715Z,2.80
2023-05-10T09:26:08.961Z,4.30
2023-05-10T09:28:58.326Z,3.80
2023-05-10T09:31:52.933Z,4.20
2023-05-10T09:34:35.942Z,5.90
2023-05-10T09:39:39.102Z,4.20
2023-05-10T09:42:11.813Z,3.20
2023-05-10T09:44:42.246Z,4.80
2023-05-10T09:47:11.053Z,5.50
2023-05-10T09:49:39.926Z,6.20
2023-05-10T09:52:09.763Z,7.00
2023-05-10T09:54:38.524Z,4.70
2023-05-10T09:57:19.870Z,6.00
2023-05-10T09:59:49.272Z,6.30
2023-05-10T10:02:18.557Z,7.40
2023-05-10T10:04:50.785Z,5.20
2023-05-10T10:07:26.072Z,4.80
2023-05-10T10:09:55.137Z,6.20
2023-05-10T10:12:24.112Z,4.70
2023-05-10T10:14:53.635Z,4.40
2023-05-10T10:17:23.211Z,4.70
2023-05-10T10:19:52.435Z,4.90
2023-05-10T10:22:21.422Z,5.10
2023-05-10T10:24:51.953Z,4.60
2023-05-10T10:27:25.037Z,5.80
2023-05-10T10:30:11.337Z,5.70
2023-05-10T10:33:13.224Z,5.70
2023-05-10T10:35:48.086Z,5.90
2023-05-10T10:38:17.847Z,4.20
2023-05-10T10:40:46.629Z,5.60
2023-05-10T10:43:29.653Z,3.70
2023-05-10T10:49:12.593Z,5.80
2023-05-10T10:51:42.109Z,5.70
2023-05-10T10:54:13.987Z,6.00
2023-05-10T10:56:45.927Z,3.60
2023-05-10T10:59:28.440Z,5.20
2023-05-10T11:01:57.157Z,5.90
2023-05-10T11:04:26.056Z,3.40
2023-05-10T11:07:18.703Z,5.30
2023-05-10T11:09:49.094Z,7.60
2023-05-10T11:12:17.887Z,6.00
2023-05-10T11:14:52.636Z,4.40
2023-05-10T11:17:39.754Z,6.60
2023-05-10T11:20:15.670Z,7.00
2023-05-10T11:22:55.635Z,3.20
2023-05-10T11:25:30.810Z,3.50
2023-05-10T11:28:04.173Z,4.40
2023-05-10T11:30:33.117Z,3.80
2023-05-10T11:33:02.117Z,4.00
2023-05-10T11:35:31.168Z,4.10
2023-05-10T11:38:00.047Z,4.30
2023-05-10T11:40:28.943Z,3.00
2023-05-10T11:42:58.049Z,6.40
2023-05-10T11:45:27.460Z,3.20
2023-05-10T11:47:58.823Z,3.90
2023-05-10T11:50:28.830Z,3.70
2023-05-10T11:52:59.882Z,3.30
2023-05-10T11:55:28.758Z,3.10
2023-05-10T11:58:02.804Z,4.80
2023-05-10T12:00:33.018Z,3.90
2023-05-10T12:03:03.513Z,7.40
2023-05-10T12:05:35.309Z,5.90
2023-05-10T12:08:16.786Z,5.20
2023-05-10T12:10:45.569Z,5.40
2023-05-10T12:13:16.418Z,4.60
2023-05-10T12:15:45.889Z,5.30
2023-05-10T12:18:16.484Z,6.70
2023-05-10T12:20:45.380Z,5.80
2023-05-10T12:23:15.378Z,5.50
2023-05-10T12:25:44.430Z,5.30
2023-05-10T12:28:13.579Z,4.10
2023-05-10T12:30:42.484Z,8.00
2023-05-10T12:33:18.267Z,4.30
2023-05-10T12:35:54.392Z,6.10
2023-05-10T12:38:39.270Z,4.40
2023-05-10T12:41:19.498Z,5.90
2023-05-10T12:43:49.272Z,6.80
2023-05-10T12:46:18.936Z,5.30
2023-05-10T12:48:57.545Z,5.00
2023-05-10T12:51:32.342Z,9.40
2023-05-10T12:54:01.222Z,8.60
2023-05-10T12:56:30.036Z,4.20
2023-05-10T12:58:58.774Z,6.50
2023-05-10T13:01:27.743Z,5.20
2023-05-10T13:03:56.489Z,5.10
2023-05-10T13:06:25.291Z,5.30
2023-05-10T13:08:54.192Z,4.30
2023-05-10T13:11:23.032Z,4.80
2023-05-10T13:13:52.577Z,6.10
2023-05-10T13:16:21.528Z,4.20
2023-05-10T13:18:50.391Z,6.90
2023-05-10T13:21:19.153Z,7.80
2023-05-10T13:23:48.051Z,8.20
2023-05-10T13:26:16.956Z,3.50
2023-05-10T13:28:47.151Z,5.60
2023-05-10T13:31:16.090Z,6.50
2023-05-10T13:33:44.916Z,3.50
2023-05-10T13:36:13.664Z,5.00
2023-05-10T13:38:42.602Z,5.10
2023-05-10T13:41:11.975Z,7.60
2023-05-10T13:43:40.907Z,3.70
2023-05-10T13:46:09.731Z,4.50
2023-05-10T13:48:39.219Z,4.40
2023-05-10T13:51:08.189Z,11.60
2023-05-10T13:53:37.708Z,5.70
2023-05-10T13:56:06.815Z,2.90
2023-05-10T13:58:36.945Z,4.90
2023-05-10T14:01:06.058Z,4.00
2023-05-10T14:03:35.071Z,6.90
2023-05-10T14:06:04.022Z,3.50
2023-05-10T14:08:32.791Z,3.80
2023-05-10T14:11:01.712Z,3.90
2023-05-10T14:13:30.509Z,4.80
2023-05-10T14:16:01.827Z,3.20
2023-05-10T14:18:30.897Z,4.30
2023-05-10T14:21:00.006Z,3.30
2023-05-10T14:23:29.900Z,4.60
2023-05-10T14:25:58.763Z,3.10
2023-05-10T14:28:27.564Z,6.90
2023-05-10T14:30:56.402Z,7.00
2023-05-10T14:33:25.129Z,2.90
2023-05-10T14:35:57.653Z,5.80
2023-05-10T14:38:26.354Z,7.50
2023-05-10T14:40:55.486Z,6.00
2023-05-10T14:43:24.560Z,2.80
2023-05-10T14:45:53.364Z,4.10
2023-05-10T14:48:22.523Z,3.70
2023-05-10T14:50:53.947Z,4.90
2023-05-10T14:53:23.056Z,6.20
2023-05-10T14:55:51.974Z,3.90
2023-05-10T14:58:20.799Z,4.60
2023-05-10T15:00:49.902Z,3.10
2023-05-10T15:03:19.282Z,5.70
2023-05-10T15:05:48.503Z,3.80
2023-05-10T15:08:17.268Z,3.30
2023-05-10T15:10:45.994Z,5.20
2023-05-10T15:13:15.051Z,11.10
2023-05-10T15:15:43.773Z,3.50
2023-05-10T15:18:12.680Z,3.80
2023-05-10T15:20:41.457Z,12.00
2023-05-10T15:23:10.207Z,6.80
2023-05-10T15:25:38.916Z,4.10
2023-05-10T15:28:07.687Z,3.70
2023-05-10T15:30:36.419Z,4.70
2023-05-10T15:33:05.392Z,4.40
2023-05-10T15:35:36.893Z,9.30
2023-05-10T15:38:05.684Z,5.90
2023-05-10T15:40:34.458Z,3.60
2023-05-10T15:43:03.324Z,4.60
2023-05-10T15:45:32.173Z,4.00
2023-05-10T15:48:01.110Z,5.70
2023-05-10T15:50:30.092Z,4.30
2023-05-10T15:52:58.915Z,3.60
2023-05-10T15:55:27.851Z,3.60
2023-05-10T15:57:56.680Z,5.50
2023-05-10T16:00:25.769Z,6.30
2023-05-10T16:02:54.749Z,5.00
2023-05-10T16:05:24.419Z,4.50
2023-05-10T16:07:53.716Z,5.00
2023-05-10T16:10:22.757Z,4.80
2023-05-10T16:12:51.946Z,9.20
2023-05-10T16:15:22.161Z,4.70
2023-05-10T16:17:51.413Z,4.30
2023-05-10T16:20:20.671Z,4.60
2023-05-10T16:22:49.517Z,5.90
2023-05-10T16:25:18.875Z,6.90
2023-05-10T16:27:48.252Z,4.10
2023-05-10T16:30:17.449Z,5.60
2023-05-10T16:32:46.135Z,6.00
2023-05-10T16:35:15.191Z,6.40
2023-05-10T16:37:44.083Z,5.10
2023-05-10T16:40:13.196Z,5.20
2023-05-10T16:42:41.837Z,4.60
2023-05-10T16:45:11.414Z,8.50
2023-05-10T16:47:41.154Z,3.30
2023-05-10T16:50:10.532Z,4.90
2023-05-10T16:52:39.431Z,9.90
2023-05-10T16:55:08.798Z,5.40
2023-05-10T16:57:37.584Z,5.80
2023-05-10T17:00:07.369Z,4.70
2023-05-10T17:02:36.310Z,4.20
2023-05-10T17:05:05.865Z,7.00
2023-05-10T17:07:35.022Z,3.80
2023-05-10T17:10:04.199Z,5.50
2023-05-10T17:12:33.027Z,5.80
2023-05-10T17:15:01.961Z,8.90
2023-05-10T17:17:30.749Z,11.50
2023-05-10T17:19:59.621Z,8.80
2023-05-10T17:22:28.390Z,7.30
2023-05-10T17:24:57.094Z,8.60
2023-05-10T17:27:25.854Z,4.80
2023-05-10T17:29:58.218Z,8.20
2023-05-10T17:32:27.142Z,10.90
2023-05-10T17:34:55.901Z,8.70
2023-05-10T17:37:24.617Z,8.20
2023-05-10T17:39:53.289Z,13.90
2023-05-10T17:42:21.995Z,16.50
2023-05-10T17:44:50.799Z,7.10
2023-05-10T17:47:19.770Z,9.20
2023-05-10T17:49:48.481Z,10.00
2023-05-10T17:52:17.338Z,12.00
2023-05-10T17:54:46.091Z,11.30
2023-05-10T17:57:14.845Z,17.10
2023-05-10T17:59:43.524Z,9.70
2023-05-10T18:02:12.260Z,8.60
2023-05-10T18:04:41.502Z,10.90
2023-05-10T18:07:11.029Z,9.50
2023-05-10T18:09:39.742Z,12.20
2023-05-10T18:12:08.429Z,10.50
2023-05-10T18:14:40.990Z,10.20
2023-05-10T18:19:39.750Z,14.20
2023-05-10T18:22:10.654Z,10.30
2023-05-10T18:24:41.161Z,11.70
2023-05-10T18:27:09.948Z,13.90
2023-05-10T18:29:39.577Z,11.30
2023-05-10T18:32:08.252Z,11.00
2023-05-10T18:34:37.204Z,10.60
2023-05-10T18:37:07.932Z,11.00
2023-05-10T18:39:39.700Z,9.50
2023-05-10T18:42:09.292Z,10.60
2023-05-10T18:44:38.030Z,14.10
2023-05-10T18:47:06.896Z,9.30
2023-05-10T18:49:35.569Z,10.30
2023-05-10T18:52:04.322Z,11.30
2023-05-10T18:54:32.967Z,11.80
2023-05-10T18:57:01.752Z,12.60
2023-05-10T18:59:30.915Z,10.50
2023-05-10T19:02:00.616Z,15.10
2023-05-10T19:04:29.611Z,16.80
2023-05-10T19:06:58.412Z,12.30
2023-05-10T19:09:27.535Z,14.40
2023-05-10T19:11:56.825Z,11.50
2023-05-10T19:14:25.666Z,14.70
2023-05-10T19:16:54.629Z,14.60
2023-05-10T19:19:24.748Z,10.20
2023-05-10T19:21:55.913Z,15.00
2023-05-10T19:24:25.921Z,15.30
2023-05-10T19:26:56.527Z,17.70
2023-05-10T19:29:27.796Z,13.80
2023-05-10T19:31:56.583Z,15.70
2023-05-10T19:34:25.330Z,16.20
2023-05-10T19:36:54.884Z,14.40
2023-05-10T19:39:23.782Z,14.10
2023-05-10T19:41:52.452Z,14.50
2023-05-10T19:44:21.434Z,14.10
2023-05-10T19:46:50.241Z,14.40
2023-05-10T19:49:19.117Z,11.40
2023-05-10T19:51:47.945Z,12.10
2023-05-10T19:54:17.236Z,15.10
2023-05-10T19:56:45.989Z,12.20
2023-05-10T19:59:14.688Z,19.10
2023-05-10T20:01:43.414Z,12.70
2023-05-10T20:04:12.940Z,12.60
2023-05-10T20:06:41.741Z,14.00
2023-05-10T20:09:10.459Z,13.60
2023-05-10T20:11:39.257Z,15.00
2023-05-10T20:14:09.393Z,14.40
2023-05-10T20:16:39.417Z,14.90
2023-05-10T20:19:08.232Z,11.40
2023-05-10T20:21:37.088Z,15.30
2023-05-10T20:24:07.883Z,14.20
2023-05-10T20:26:36.578Z,16.50
2023-05-10T20:29:05.573Z,13.40
2023-05-10T20:31:34.473Z,12.90
2023-05-10T20:34:03.221Z,15.50
2023-05-10T20:36:32.036Z,19.00
2023-05-10T20:39:00.885Z,12.90
2023-05-10T20:41:29.540Z,16.10
2023-05-10T20:43:58.207Z,17.30
2023-05-10T20:46:30.456Z,16.00
2023-05-10T20:48:59.726Z,16.30
2023-05-10T20:51:30.469Z,18.10
2023-05-10T20:54:01.774Z,16.70
2023-05-10T20:56:31.469Z,20.20
2023-05-10T20:59:00.140Z,14.50
2023-05-10T21:01:28.924Z,19.00
2023-05-10T21:03:57.947Z,20.60
2023-05-10T21:06:26.581Z,17.50
2023-05-10T21:08:55.284Z,18.70
2023-05-10T21:11:24.079Z,23.50
2023-05-10T21:13:52.906Z,15.20
2023-05-10T21:16:21.651Z,17.40
2023-05-10T21:18:50.398Z,14.20
2023-05-10T21:21:19.124Z,15.30
2023-05-10T21:23:47.879Z,16.80
2023-05-10T21:26:17.247Z,15.30
2023-05-10T21:28:46.217Z,14.90
2023-05-10T21:31:14.928Z,20.80
2023-05-10T21:33:43.817Z,17.30
2023-05-10T21:36:12.531Z,16.90
2023-05-10T21:38:42.482Z,19.50
2023-05-10T21:41:11.301Z,21.90
2023-05-10T21:43:40.023Z,24.80
2023-05-10T21:46:09.495Z,20.00
2023-05-10T21:48:38.355Z,20.10
2023-05-10T21:51:07.140Z,19.20
2023-05-10T21:53:39.108Z,20.10
2023-05-10T21:56:07.837Z,16.70
2023-05-10T21:58:36.747Z,17.80
2023-05-10T22:01:05.768Z,18.90
2023-05-10T22:03:34.484Z,13.60
2023-05-10T22:06:03.349Z,17.40
2023-05-10T22:08:32.204Z,19.30
2023-05-10T22:11:00.953Z,22.00
2023-05-10T22:13:29.607Z,17.10
2023-05-10T22:15:58.221Z,19.50
2023-05-10T22:18:26.912Z,14.20
2023-05-10T22:20:55.716Z,17.10
2023-05-10T22:23:24.386Z,19.00
2023-05-10T22:25:53.132Z,19.80
2023-05-10T22:28:21.784Z,23.80
2023-05-10T22:30:50.483Z,16.10
2023-05-10T22:33:19.315Z,18.10
2023-05-10T22:35:48.094Z,15.00
2023-05-10T22:38:16.770Z,16.30
2023-05-10T22:40:45.669Z,14.80
2023-05-10T22:43:14.388Z,16.40
2023-05-10T22:45:43.033Z,18.10
2023-05-10T22:48:12.100Z,16.60
2023-05-10T22:50:40.878Z,15.30
2023-05-10T22:53:09.560Z,16.60
2023-05-10T22:55:38.421Z,17.80
2023-05-10T22:58:07.723Z,15.40
2023-05-10T23:00:36.512Z,15.10
2023-05-10T23:03:06.863Z,14.00
2023-05-10T23:05:35.629Z,13.10
2023-05-10T23:08:04.412Z,13.40
2023-05-10T23:10:33.285Z,13.00
2023-05-10T23:13:02.107Z,13.60
2023-05-10T23:15:33.183Z,16.00
2023-05-10T23:18:02.731Z,12.50
2023-05-10T23:20:31.454Z,13.40
2023-05-10T23:23:00.105Z,12.40
2023-05-10T23:25:28.760Z,12.80
2023-05-10T23:27:57.560Z,13.00
2023-05-10T23:30:26.444Z,13.10
2023-05-10T23:32:55.188Z,15.10
2023-05-10T23:35:23.855Z,12.80
2023-05-10T23:37:52.576Z,11.50
2023-05-10T23:40:21.308Z,14.20
2023-05-10T23:42:50.121Z,14.80
2023-05-10T23:45:18.819Z,12.80
2023-05-10T23:47:47.524Z,13.10
2023-05-10T23:50:16.667Z,15.30
2023-05-10T23:52:45.579Z,13.30
2023-05-10T23:55:14.382Z,14.30
2023-05-10T23:57:43.752Z,11.70
